Whitetop, Virginia
Current Conditions -  °F | °C
As of 2:55 PM on Saturday 25 Oct 2014 (Local Time) from KGEV Reporting Station
Clear Clear  
Wind Chill: 65°   Ceiling: Unl
Heat Index: 65°   Visibility: 10mi
Dew Point: 31°   Wind: 13mph
Humidity: 28%   Direction: 270°W
Pressure: 30.01"   Gusts: 17mph
Location:  36.6°N, 81.63°W
Report Text: KGEV 251855Z AUTO 27011G15KT 10SM CLR 18/M01 A3001 RMK AO2 T01831007
Loading
Personal Weather Stations






























Interactive Weather Map New forecast layout! Learn more

10-Day Weather Forecast

Advertisements
Track Severe Weather on mobile